sensor_id;sensor_type;location;lat;lon;timestamp;P1;durP1;ratioP1;P2;durP2;ratioP2
12884;SDS011;6510;51.362;7.370;2022-07-26T00:01:30;6.87;;;1.40;;
12884;SDS011;6510;51.362;7.370;2022-07-26T00:03:56;5.07;;;1.20;;
12884;SDS011;6510;51.362;7.370;2022-07-26T00:06:24;3.50;;;1.57;;
12884;SDS011;6510;51.362;7.370;2022-07-26T00:08:50;7.47;;;1.53;;
12884;SDS011;6510;51.362;7.370;2022-07-26T00:11:17;2.17;;;1.30;;
12884;SDS011;6510;51.362;7.370;2022-07-26T00:13:43;2.33;;;1.40;;
12884;SDS011;6510;51.362;7.370;2022-07-26T00:16:09;4.03;;;1.30;;
12884;SDS011;6510;51.362;7.370;2022-07-26T00:18:35;1.90;;;1.30;;
12884;SDS011;6510;51.362;7.370;2022-07-26T00:21:01;2.40;;;1.30;;
12884;SDS011;6510;51.362;7.370;2022-07-26T00:23:27;5.63;;;1.50;;
12884;SDS011;6510;51.362;7.370;2022-07-26T00:25:53;3.83;;;1.47;;
12884;SDS011;6510;51.362;7.370;2022-07-26T00:28:18;5.33;;;1.70;;
12884;SDS011;6510;51.362;7.370;2022-07-26T00:30:44;1.67;;;1.30;;
12884;SDS011;6510;51.362;7.370;2022-07-26T00:33:10;3.67;;;1.60;;
12884;SDS011;6510;51.362;7.370;2022-07-26T00:35:36;6.93;;;1.67;;
12884;SDS011;6510;51.362;7.370;2022-07-26T00:38:02;3.33;;;1.60;;
12884;SDS011;6510;51.362;7.370;2022-07-26T00:40:27;3.07;;;1.80;;
12884;SDS011;6510;51.362;7.370;2022-07-26T00:42:53;4.53;;;1.60;;
12884;SDS011;6510;51.362;7.370;2022-07-26T00:45:18;5.10;;;1.50;;
12884;SDS011;6510;51.362;7.370;2022-07-26T00:47:44;6.00;;;1.60;;
12884;SDS011;6510;51.362;7.370;2022-07-26T00:50:11;2.77;;;1.60;;
12884;SDS011;6510;51.362;7.370;2022-07-26T00:52:40;4.43;;;1.70;;
12884;SDS011;6510;51.362;7.370;2022-07-26T00:55:07;6.13;;;1.77;;
12884;SDS011;6510;51.362;7.370;2022-07-26T00:57:34;5.47;;;1.60;;
12884;SDS011;6510;51.362;7.370;2022-07-26T01:00:07;5.67;;;1.73;;
12884;SDS011;6510;51.362;7.370;2022-07-26T01:02:35;4.83;;;1.60;;
12884;SDS011;6510;51.362;7.370;2022-07-26T01:05:01;5.87;;;2.10;;
12884;SDS011;6510;51.362;7.370;2022-07-26T01:07:27;2.57;;;1.53;;
12884;SDS011;6510;51.362;7.370;2022-07-26T01:09:53;3.40;;;1.83;;
12884;SDS011;6510;51.362;7.370;2022-07-26T01:12:19;5.33;;;1.80;;
12884;SDS011;6510;51.362;7.370;2022-07-26T01:14:45;4.47;;;1.67;;
12884;SDS011;6510;51.362;7.370;2022-07-26T01:17:12;4.13;;;1.70;;
12884;SDS011;6510;51.362;7.370;2022-07-26T01:19:38;3.27;;;1.70;;
12884;SDS011;6510;51.362;7.370;2022-07-26T01:22:04;2.27;;;1.70;;
12884;SDS011;6510;51.362;7.370;2022-07-26T01:24:30;3.83;;;1.87;;
12884;SDS011;6510;51.362;7.370;2022-07-26T01:26:55;2.07;;;1.53;;
12884;SDS011;6510;51.362;7.370;2022-07-26T01:29:22;3.70;;;2.07;;
12884;SDS011;6510;51.362;7.370;2022-07-26T01:31:48;4.43;;;1.93;;
12884;SDS011;6510;51.362;7.370;2022-07-26T01:34:14;4.37;;;1.70;;
12884;SDS011;6510;51.362;7.370;2022-07-26T01:36:40;5.30;;;1.80;;
12884;SDS011;6510;51.362;7.370;2022-07-26T01:39:06;4.20;;;2.33;;
12884;SDS011;6510;51.362;7.370;2022-07-26T01:41:31;4.03;;;1.80;;
12884;SDS011;6510;51.362;7.370;2022-07-26T01:43:57;4.70;;;1.90;;
12884;SDS011;6510;51.362;7.370;2022-07-26T01:46:23;6.07;;;1.90;;
12884;SDS011;6510;51.362;7.370;2022-07-26T01:48:49;3.33;;;2.07;;
12884;SDS011;6510;51.362;7.370;2022-07-26T01:51:15;5.83;;;1.93;;
12884;SDS011;6510;51.362;7.370;2022-07-26T01:53:41;4.57;;;1.93;;
12884;SDS011;6510;51.362;7.370;2022-07-26T01:56:09;4.93;;;2.20;;
12884;SDS011;6510;51.362;7.370;2022-07-26T01:58:36;3.13;;;2.10;;
12884;SDS011;6510;51.362;7.370;2022-07-26T02:01:02;5.37;;;2.43;;
12884;SDS011;6510;51.362;7.370;2022-07-26T02:03:28;4.80;;;2.47;;
12884;SDS011;6510;51.362;7.370;2022-07-26T02:05:53;4.57;;;2.03;;
12884;SDS011;6510;51.362;7.370;2022-07-26T02:08:19;4.97;;;2.20;;
12884;SDS011;6510;51.362;7.370;2022-07-26T02:10:45;4.50;;;2.10;;
12884;SDS011;6510;51.362;7.370;2022-07-26T02:16:07;5.13;;;1.80;;
12884;SDS011;6510;51.362;7.370;2022-07-26T02:18:35;6.87;;;2.27;;
12884;SDS011;6510;51.362;7.370;2022-07-26T02:21:07;4.70;;;2.10;;
12884;SDS011;6510;51.362;7.370;2022-07-26T02:23:34;6.30;;;2.33;;
12884;SDS011;6510;51.362;7.370;2022-07-26T02:26:00;3.93;;;1.90;;
12884;SDS011;6510;51.362;7.370;2022-07-26T02:28:26;4.70;;;2.00;;
12884;SDS011;6510;51.362;7.370;2022-07-26T02:30:52;2.77;;;1.53;;
12884;SDS011;6510;51.362;7.370;2022-07-26T02:33:18;7.80;;;1.87;;
12884;SDS011;6510;51.362;7.370;2022-07-26T02:35:44;4.57;;;1.87;;
12884;SDS011;6510;51.362;7.370;2022-07-26T02:38:12;4.17;;;2.03;;
12884;SDS011;6510;51.362;7.370;2022-07-26T02:40:39;5.07;;;1.80;;
12884;SDS011;6510;51.362;7.370;2022-07-26T02:43:05;6.13;;;2.17;;
12884;SDS011;6510;51.362;7.370;2022-07-26T02:45:32;5.63;;;1.90;;
12884;SDS011;6510;51.362;7.370;2022-07-26T02:47:59;3.63;;;1.93;;
12884;SDS011;6510;51.362;7.370;2022-07-26T02:50:26;5.23;;;2.23;;
12884;SDS011;6510;51.362;7.370;2022-07-26T02:52:52;4.07;;;1.90;;
12884;SDS011;6510;51.362;7.370;2022-07-26T02:55:20;4.63;;;1.70;;
12884;SDS011;6510;51.362;7.370;2022-07-26T02:57:48;6.03;;;2.00;;
12884;SDS011;6510;51.362;7.370;2022-07-26T03:00:15;3.97;;;2.00;;
12884;SDS011;6510;51.362;7.370;2022-07-26T03:02:42;4.27;;;1.90;;
12884;SDS011;6510;51.362;7.370;2022-07-26T03:05:08;5.17;;;1.87;;
12884;SDS011;6510;51.362;7.370;2022-07-26T03:07:35;4.50;;;1.60;;
12884;SDS011;6510;51.362;7.370;2022-07-26T03:10:00;4.67;;;1.80;;
12884;SDS011;6510;51.362;7.370;2022-07-26T03:12:26;4.53;;;1.83;;
12884;SDS011;6510;51.362;7.370;2022-07-26T03:14:52;5.10;;;1.80;;
12884;SDS011;6510;51.362;7.370;2022-07-26T03:17:18;3.67;;;1.80;;
12884;SDS011;6510;51.362;7.370;2022-07-26T03:19:43;5.03;;;1.90;;
12884;SDS011;6510;51.362;7.370;2022-07-26T03:22:09;3.07;;;1.53;;
12884;SDS011;6510;51.362;7.370;2022-07-26T03:24:36;4.67;;;1.80;;
12884;SDS011;6510;51.362;7.370;2022-07-26T03:27:01;8.57;;;1.80;;
12884;SDS011;6510;51.362;7.370;2022-07-26T03:29:27;6.27;;;1.90;;
12884;SDS011;6510;51.362;7.370;2022-07-26T03:31:53;4.83;;;2.00;;
12884;SDS011;6510;51.362;7.370;2022-07-26T03:34:19;3.13;;;1.83;;
12884;SDS011;6510;51.362;7.370;2022-07-26T03:36:45;6.30;;;2.27;;
12884;SDS011;6510;51.362;7.370;2022-07-26T03:39:11;6.13;;;2.10;;
12884;SDS011;6510;51.362;7.370;2022-07-26T03:41:36;6.83;;;2.50;;
12884;SDS011;6510;51.362;7.370;2022-07-26T03:44:02;3.87;;;2.03;;
12884;SDS011;6510;51.362;7.370;2022-07-26T03:46:28;5.57;;;2.40;;
12884;SDS011;6510;51.362;7.370;2022-07-26T03:48:54;5.77;;;2.23;;
12884;SDS011;6510;51.362;7.370;2022-07-26T03:51:20;4.83;;;2.43;;
12884;SDS011;6510;51.362;7.370;2022-07-26T03:53:45;5.00;;;2.37;;
12884;SDS011;6510;51.362;7.370;2022-07-26T03:56:14;5.43;;;2.10;;
12884;SDS011;6510;51.362;7.370;2022-07-26T03:59:02;2.97;;;1.90;;
12884;SDS011;6510;51.362;7.370;2022-07-26T04:01:29;7.83;;;2.93;;
12884;SDS011;6510;51.362;7.370;2022-07-26T04:03:55;8.53;;;2.70;;
12884;SDS011;6510;51.362;7.370;2022-07-26T04:06:21;8.87;;;2.70;;
12884;SDS011;6510;51.362;7.370;2022-07-26T04:08:48;4.87;;;2.63;;
12884;SDS011;6510;51.362;7.370;2022-07-26T04:11:14;7.17;;;2.80;;
12884;SDS011;6510;51.362;7.370;2022-07-26T04:13:39;5.83;;;3.17;;
12884;SDS011;6510;51.362;7.370;2022-07-26T04:16:05;7.57;;;3.07;;
12884;SDS011;6510;51.362;7.370;2022-07-26T04:18:31;6.30;;;2.73;;
12884;SDS011;6510;51.362;7.370;2022-07-26T04:20:57;5.50;;;3.03;;
12884;SDS011;6510;51.362;7.370;2022-07-26T04:23:22;8.07;;;3.33;;
12884;SDS011;6510;51.362;7.370;2022-07-26T04:25:48;7.80;;;3.60;;
12884;SDS011;6510;51.362;7.370;2022-07-26T04:28:14;6.77;;;3.10;;
12884;SDS011;6510;51.362;7.370;2022-07-26T04:30:40;9.43;;;3.53;;
12884;SDS011;6510;51.362;7.370;2022-07-26T04:33:05;8.57;;;3.87;;
12884;SDS011;6510;51.362;7.370;2022-07-26T04:35:34;7.33;;;3.40;;
12884;SDS011;6510;51.362;7.370;2022-07-26T04:38:00;7.07;;;3.40;;
12884;SDS011;6510;51.362;7.370;2022-07-26T04:40:26;8.07;;;3.60;;
12884;SDS011;6510;51.362;7.370;2022-07-26T04:42:57;9.27;;;4.00;;
12884;SDS011;6510;51.362;7.370;2022-07-26T04:45:23;8.33;;;4.00;;
12884;SDS011;6510;51.362;7.370;2022-07-26T04:47:49;7.17;;;4.00;;
12884;SDS011;6510;51.362;7.370;2022-07-26T04:50:15;8.63;;;4.20;;
12884;SDS011;6510;51.362;7.370;2022-07-26T04:52:42;6.90;;;3.57;;
12884;SDS011;6510;51.362;7.370;2022-07-26T04:55:08;8.40;;;3.57;;
12884;SDS011;6510;51.362;7.370;2022-07-26T04:57:34;8.90;;;3.47;;
12884;SDS011;6510;51.362;7.370;2022-07-26T05:00:00;7.60;;;3.77;;
12884;SDS011;6510;51.362;7.370;2022-07-26T05:02:28;6.93;;;3.87;;
12884;SDS011;6510;51.362;7.370;2022-07-26T05:04:54;10.70;;;4.03;;
12884;SDS011;6510;51.362;7.370;2022-07-26T05:07:19;8.93;;;3.57;;
12884;SDS011;6510;51.362;7.370;2022-07-26T05:09:45;9.97;;;3.77;;
12884;SDS011;6510;51.362;7.370;2022-07-26T05:12:10;8.93;;;3.67;;
12884;SDS011;6510;51.362;7.370;2022-07-26T05:14:37;9.27;;;3.83;;
12884;SDS011;6510;51.362;7.370;2022-07-26T05:17:03;6.73;;;3.47;;
12884;SDS011;6510;51.362;7.370;2022-07-26T05:19:29;9.97;;;4.10;;
12884;SDS011;6510;51.362;7.370;2022-07-26T05:21:55;11.03;;;4.20;;
12884;SDS011;6510;51.362;7.370;2022-07-26T05:24:20;15.10;;;4.10;;
12884;SDS011;6510;51.362;7.370;2022-07-26T05:26:46;9.90;;;4.30;;
12884;SDS011;6510;51.362;7.370;2022-07-26T05:29:12;8.27;;;4.07;;
12884;SDS011;6510;51.362;7.370;2022-07-26T05:31:37;13.37;;;5.00;;
12884;SDS011;6510;51.362;7.370;2022-07-26T05:34:03;11.50;;;4.83;;
12884;SDS011;6510;51.362;7.370;2022-07-26T05:36:29;8.97;;;5.57;;
12884;SDS011;6510;51.362;7.370;2022-07-26T05:38:54;11.00;;;5.70;;
12884;SDS011;6510;51.362;7.370;2022-07-26T05:41:21;10.33;;;5.10;;
12884;SDS011;6510;51.362;7.370;2022-07-26T05:43:47;11.70;;;5.17;;
12884;SDS011;6510;51.362;7.370;2022-07-26T05:46:13;12.87;;;5.73;;
12884;SDS011;6510;51.362;7.370;2022-07-26T05:48:39;10.60;;;5.37;;
12884;SDS011;6510;51.362;7.370;2022-07-26T05:51:06;10.40;;;5.03;;
12884;SDS011;6510;51.362;7.370;2022-07-26T05:53:32;10.80;;;4.80;;
12884;SDS011;6510;51.362;7.370;2022-07-26T05:55:58;12.73;;;4.87;;
12884;SDS011;6510;51.362;7.370;2022-07-26T05:58:23;11.53;;;5.40;;
12884;SDS011;6510;51.362;7.370;2022-07-26T06:00:49;15.60;;;5.53;;
12884;SDS011;6510;51.362;7.370;2022-07-26T06:03:15;10.03;;;5.27;;
12884;SDS011;6510;51.362;7.370;2022-07-26T06:05:47;11.47;;;5.40;;
12884;SDS011;6510;51.362;7.370;2022-07-26T06:08:16;11.67;;;5.40;;
12884;SDS011;6510;51.362;7.370;2022-07-26T06:10:42;10.73;;;5.10;;
12884;SDS011;6510;51.362;7.370;2022-07-26T06:13:08;12.43;;;5.30;;
12884;SDS011;6510;51.362;7.370;2022-07-26T06:15:33;8.27;;;4.77;;
12884;SDS011;6510;51.362;7.370;2022-07-26T06:17:59;10.07;;;6.00;;
12884;SDS011;6510;51.362;7.370;2022-07-26T06:20:24;10.43;;;5.33;;
12884;SDS011;6510;51.362;7.370;2022-07-26T06:22:50;12.47;;;5.90;;
12884;SDS011;6510;51.362;7.370;2022-07-26T06:25:16;11.43;;;6.23;;
12884;SDS011;6510;51.362;7.370;2022-07-26T06:27:42;12.27;;;6.63;;
12884;SDS011;6510;51.362;7.370;2022-07-26T06:30:08;15.23;;;7.23;;
12884;SDS011;6510;51.362;7.370;2022-07-26T06:32:34;18.17;;;7.87;;
12884;SDS011;6510;51.362;7.370;2022-07-26T06:35:00;14.73;;;7.30;;
12884;SDS011;6510;51.362;7.370;2022-07-26T06:37:26;12.60;;;7.67;;
12884;SDS011;6510;51.362;7.370;2022-07-26T06:39:51;11.60;;;7.60;;
12884;SDS011;6510;51.362;7.370;2022-07-26T06:42:17;15.13;;;7.57;;
12884;SDS011;6510;51.362;7.370;2022-07-26T06:44:43;12.37;;;7.73;;
12884;SDS011;6510;51.362;7.370;2022-07-26T06:47:09;13.90;;;8.07;;
12884;SDS011;6510;51.362;7.370;2022-07-26T06:49:34;12.85;;;7.65;;
12884;SDS011;6510;51.362;7.370;2022-07-26T06:52:00;13.80;;;8.30;;
12884;SDS011;6510;51.362;7.370;2022-07-26T06:54:26;13.60;;;7.63;;
12884;SDS011;6510;51.362;7.370;2022-07-26T06:56:51;13.18;;;8.18;;
12884;SDS011;6510;51.362;7.370;2022-07-26T06:59:17;15.30;;;9.48;;
12884;SDS011;6510;51.362;7.370;2022-07-26T07:01:42;18.35;;;10.70;;
12884;SDS011;6510;51.362;7.370;2022-07-26T07:04:08;18.15;;;10.75;;
12884;SDS011;6510;51.362;7.370;2022-07-26T07:06:34;23.05;;;13.07;;
12884;SDS011;6510;51.362;7.370;2022-07-26T07:08:59;15.85;;;11.23;;
12884;SDS011;6510;51.362;7.370;2022-07-26T07:11:25;16.47;;;11.43;;
12884;SDS011;6510;51.362;7.370;2022-07-26T07:13:51;19.20;;;11.23;;
12884;SDS011;6510;51.362;7.370;2022-07-26T07:16:16;20.17;;;11.80;;
12884;SDS011;6510;51.362;7.370;2022-07-26T07:18:42;20.13;;;12.60;;
12884;SDS011;6510;51.362;7.370;2022-07-26T07:21:07;19.43;;;12.90;;
12884;SDS011;6510;51.362;7.370;2022-07-26T07:23:33;19.47;;;13.73;;
12884;SDS011;6510;51.362;7.370;2022-07-26T07:25:59;17.25;;;10.63;;
12884;SDS011;6510;51.362;7.370;2022-07-26T07:28:24;24.13;;;14.43;;
12884;SDS011;6510;51.362;7.370;2022-07-26T07:30:50;23.38;;;14.75;;
12884;SDS011;6510;51.362;7.370;2022-07-26T07:33:16;15.15;;;9.93;;
12884;SDS011;6510;51.362;7.370;2022-07-26T07:35:42;16.65;;;8.90;;
12884;SDS011;6510;51.362;7.370;2022-07-26T07:38:07;15.80;;;8.60;;
12884;SDS011;6510;51.362;7.370;2022-07-26T07:40:33;12.70;;;8.73;;
12884;SDS011;6510;51.362;7.370;2022-07-26T07:42:59;15.25;;;8.27;;
12884;SDS011;6510;51.362;7.370;2022-07-26T07:45:25;13.40;;;8.55;;
12884;SDS011;6510;51.362;7.370;2022-07-26T07:47:51;14.93;;;8.75;;
12884;SDS011;6510;51.362;7.370;2022-07-26T07:50:17;14.80;;;8.07;;
12884;SDS011;6510;51.362;7.370;2022-07-26T07:52:42;15.00;;;7.72;;
12884;SDS011;6510;51.362;7.370;2022-07-26T07:55:08;12.93;;;8.07;;
12884;SDS011;6510;51.362;7.370;2022-07-26T07:57:34;14.13;;;8.43;;
12884;SDS011;6510;51.362;7.370;2022-07-26T08:00:01;11.45;;;7.38;;
12884;SDS011;6510;51.362;7.370;2022-07-26T08:02:30;14.32;;;7.85;;
12884;SDS011;6510;51.362;7.370;2022-07-26T08:04:56;17.35;;;7.85;;
12884;SDS011;6510;51.362;7.370;2022-07-26T08:07:22;12.75;;;7.60;;
12884;SDS011;6510;51.362;7.370;2022-07-26T08:09:47;10.75;;;7.18;;
12884;SDS011;6510;51.362;7.370;2022-07-26T08:12:13;11.65;;;6.63;;
12884;SDS011;6510;51.362;7.370;2022-07-26T08:14:38;13.00;;;6.30;;
12884;SDS011;6510;51.362;7.370;2022-07-26T08:17:04;9.80;;;5.72;;
12884;SDS011;6510;51.362;7.370;2022-07-26T08:19:30;7.47;;;5.22;;
12884;SDS011;6510;51.362;7.370;2022-07-26T08:21:55;11.10;;;5.07;;
12884;SDS011;6510;51.362;7.370;2022-07-26T08:24:21;8.65;;;5.00;;
12884;SDS011;6510;51.362;7.370;2022-07-26T08:26:47;8.05;;;4.28;;
12884;SDS011;6510;51.362;7.370;2022-07-26T08:29:15;6.30;;;4.20;;
12884;SDS011;6510;51.362;7.370;2022-07-26T08:31:40;6.72;;;3.95;;
12884;SDS011;6510;51.362;7.370;2022-07-26T08:34:06;6.20;;;4.00;;
12884;SDS011;6510;51.362;7.370;2022-07-26T08:36:32;6.18;;;4.00;;
12884;SDS011;6510;51.362;7.370;2022-07-26T08:38:57;7.40;;;4.35;;
12884;SDS011;6510;51.362;7.370;2022-07-26T08:41:23;7.45;;;3.83;;
12884;SDS011;6510;51.362;7.370;2022-07-26T08:43:49;7.40;;;3.70;;
12884;SDS011;6510;51.362;7.370;2022-07-26T08:46:15;7.80;;;3.58;;
12884;SDS011;6510;51.362;7.370;2022-07-26T08:48:40;5.07;;;3.17;;
12884;SDS011;6510;51.362;7.370;2022-07-26T08:51:06;5.93;;;3.38;;
12884;SDS011;6510;51.362;7.370;2022-07-26T08:53:34;7.28;;;3.33;;
12884;SDS011;6510;51.362;7.370;2022-07-26T08:56:01;7.22;;;3.85;;
12884;SDS011;6510;51.362;7.370;2022-07-26T08:58:30;4.63;;;3.40;;
12884;SDS011;6510;51.362;7.370;2022-07-26T09:03:29;6.55;;;3.33;;
12884;SDS011;6510;51.362;7.370;2022-07-26T09:05:56;5.45;;;3.30;;
12884;SDS011;6510;51.362;7.370;2022-07-26T09:08:28;3.45;;;2.92;;
12884;SDS011;6510;51.362;7.370;2022-07-26T09:10:54;6.82;;;3.22;;
12884;SDS011;6510;51.362;7.370;2022-07-26T09:13:20;4.15;;;2.80;;
12884;SDS011;6510;51.362;7.370;2022-07-26T09:15:48;6.93;;;2.65;;
12884;SDS011;6510;51.362;7.370;2022-07-26T09:18:32;7.25;;;3.08;;
12884;SDS011;6510;51.362;7.370;2022-07-26T09:20:57;5.70;;;2.97;;
12884;SDS011;6510;51.362;7.370;2022-07-26T09:23:26;7.10;;;2.90;;
12884;SDS011;6510;51.362;7.370;2022-07-26T09:26:03;4.78;;;2.67;;
12884;SDS011;6510;51.362;7.370;2022-07-26T09:28:30;5.43;;;2.97;;
12884;SDS011;6510;51.362;7.370;2022-07-26T09:33:22;4.25;;;3.10;;
12884;SDS011;6510;51.362;7.370;2022-07-26T09:36:02;8.70;;;3.40;;
12884;SDS011;6510;51.362;7.370;2022-07-26T09:38:42;4.78;;;2.92;;
12884;SDS011;6510;51.362;7.370;2022-07-26T09:41:23;5.85;;;2.95;;
12884;SDS011;6510;51.362;7.370;2022-07-26T09:43:54;4.72;;;2.78;;
12884;SDS011;6510;51.362;7.370;2022-07-26T09:46:23;4.90;;;2.45;;
12884;SDS011;6510;51.362;7.370;2022-07-26T09:48:52;7.35;;;2.75;;
12884;SDS011;6510;51.362;7.370;2022-07-26T09:51:34;4.03;;;2.75;;
12884;SDS011;6510;51.362;7.370;2022-07-26T09:54:02;4.32;;;2.88;;
12884;SDS011;6510;51.362;7.370;2022-07-26T09:56:44;5.18;;;2.95;;
12884;SDS011;6510;51.362;7.370;2022-07-26T09:59:11;4.07;;;3.08;;
12884;SDS011;6510;51.362;7.370;2022-07-26T10:01:38;3.17;;;2.85;;
12884;SDS011;6510;51.362;7.370;2022-07-26T10:04:03;8.60;;;3.22;;
12884;SDS011;6510;51.362;7.370;2022-07-26T10:06:30;5.75;;;2.90;;
12884;SDS011;6510;51.362;7.370;2022-07-26T10:08:56;4.93;;;2.70;;
12884;SDS011;6510;51.362;7.370;2022-07-26T10:11:23;3.50;;;3.20;;
12884;SDS011;6510;51.362;7.370;2022-07-26T10:13:50;6.38;;;2.83;;
12884;SDS011;6510;51.362;7.370;2022-07-26T10:16:28;5.25;;;2.88;;
12884;SDS011;6510;51.362;7.370;2022-07-26T10:18:56;4.63;;;2.78;;
12884;SDS011;6510;51.362;7.370;2022-07-26T10:21:26;3.58;;;2.88;;
12884;SDS011;6510;51.362;7.370;2022-07-26T10:23:57;4.75;;;3.45;;
12884;SDS011;6510;51.362;7.370;2022-07-26T10:29:41;6.88;;;3.20;;
12884;SDS011;6510;51.362;7.370;2022-07-26T10:34:10;3.10;;;2.38;;
12884;SDS011;6510;51.362;7.370;2022-07-26T10:36:59;7.00;;;3.03;;
12884;SDS011;6510;51.362;7.370;2022-07-26T10:39:26;4.28;;;2.97;;
12884;SDS011;6510;51.362;7.370;2022-07-26T10:41:56;3.88;;;2.65;;
12884;SDS011;6510;51.362;7.370;2022-07-26T10:44:25;3.97;;;2.63;;
12884;SDS011;6510;51.362;7.370;2022-07-26T10:55:02;5.38;;;2.28;;
12884;SDS011;6510;51.362;7.370;2022-07-26T10:57:31;3.63;;;2.08;;
12884;SDS011;6510;51.362;7.370;2022-07-26T10:59:58;4.53;;;2.25;;
12884;SDS011;6510;51.362;7.370;2022-07-26T11:02:31;4.20;;;2.25;;
12884;SDS011;6510;51.362;7.370;2022-07-26T11:05:01;4.28;;;2.40;;
12884;SDS011;6510;51.362;7.370;2022-07-26T11:07:27;5.93;;;2.75;;
12884;SDS011;6510;51.362;7.370;2022-07-26T11:09:57;4.88;;;2.50;;
12884;SDS011;6510;51.362;7.370;2022-07-26T11:12:23;3.53;;;2.50;;
12884;SDS011;6510;51.362;7.370;2022-07-26T11:14:49;2.47;;;2.28;;
12884;SDS011;6510;51.362;7.370;2022-07-26T11:17:25;5.65;;;3.03;;
12884;SDS011;6510;51.362;7.370;2022-07-26T11:19:51;3.03;;;2.78;;
12884;SDS011;6510;51.362;7.370;2022-07-26T11:22:18;5.43;;;2.88;;
12884;SDS011;6510;51.362;7.370;2022-07-26T11:24:44;4.40;;;3.10;;
12884;SDS011;6510;51.362;7.370;2022-07-26T11:27:10;4.18;;;3.35;;
12884;SDS011;6510;51.362;7.370;2022-07-26T11:29:36;4.15;;;3.85;;
12884;SDS011;6510;51.362;7.370;2022-07-26T11:32:03;9.15;;;4.72;;
12884;SDS011;6510;51.362;7.370;2022-07-26T11:34:32;6.00;;;4.43;;
12884;SDS011;6510;51.362;7.370;2022-07-26T11:36:59;7.88;;;4.90;;
12884;SDS011;6510;51.362;7.370;2022-07-26T11:39:27;6.18;;;5.57;;
12884;SDS011;6510;51.362;7.370;2022-07-26T11:41:59;5.75;;;5.15;;
12884;SDS011;6510;51.362;7.370;2022-07-26T11:44:28;8.27;;;5.50;;
12884;SDS011;6510;51.362;7.370;2022-07-26T11:46:54;6.20;;;5.60;;
12884;SDS011;6510;51.362;7.370;2022-07-26T11:49:25;6.97;;;5.18;;
12884;SDS011;6510;51.362;7.370;2022-07-26T11:54:23;6.03;;;5.45;;
12884;SDS011;6510;51.362;7.370;2022-07-26T11:56:54;5.53;;;5.03;;
12884;SDS011;6510;51.362;7.370;2022-07-26T11:59:26;5.68;;;4.75;;
12884;SDS011;6510;51.362;7.370;2022-07-26T12:01:53;4.32;;;4.03;;
12884;SDS011;6510;51.362;7.370;2022-07-26T12:04:21;4.60;;;3.70;;
12884;SDS011;6510;51.362;7.370;2022-07-26T12:06:50;3.60;;;3.33;;
12884;SDS011;6510;51.362;7.370;2022-07-26T12:09:34;3.05;;;2.70;;
12884;SDS011;6510;51.362;7.370;2022-07-26T12:12:09;2.78;;;2.67;;
12884;SDS011;6510;51.362;7.370;2022-07-26T12:14:55;2.30;;;2.20;;
12884;SDS011;6510;51.362;7.370;2022-07-26T12:17:22;3.50;;;2.17;;
12884;SDS011;6510;51.362;7.370;2022-07-26T12:19:47;1.90;;;1.80;;
12884;SDS011;6510;51.362;7.370;2022-07-26T12:22:17;2.10;;;1.90;;
12884;SDS011;6510;51.362;7.370;2022-07-26T12:27:28;3.60;;;1.60;;
12884;SDS011;6510;51.362;7.370;2022-07-26T12:30:12;2.42;;;1.42;;
12884;SDS011;6510;51.362;7.370;2022-07-26T12:32:39;1.73;;;1.38;;
12884;SDS011;6510;51.362;7.370;2022-07-26T12:37:53;2.70;;;2.10;;
12884;SDS011;6510;51.362;7.370;2022-07-26T12:40:23;2.05;;;1.80;;
12884;SDS011;6510;51.362;7.370;2022-07-26T12:45:19;1.30;;;1.30;;
12884;SDS011;6510;51.362;7.370;2022-07-26T12:47:47;1.90;;;1.80;;
12884;SDS011;6510;51.362;7.370;2022-07-26T12:50:16;1.67;;;1.58;;
12884;SDS011;6510;51.362;7.370;2022-07-26T12:52:43;1.40;;;1.30;;
12884;SDS011;6510;51.362;7.370;2022-07-26T12:55:10;1.23;;;1.20;;
12884;SDS011;6510;51.362;7.370;2022-07-26T12:57:40;1.10;;;1.00;;
12884;SDS011;6510;51.362;7.370;2022-07-26T13:00:06;1.05;;;1.05;;
12884;SDS011;6510;51.362;7.370;2022-07-26T13:02:34;0.90;;;0.90;;
12884;SDS011;6510;51.362;7.370;2022-07-26T13:05:01;1.35;;;1.20;;
12884;SDS011;6510;51.362;7.370;2022-07-26T13:07:28;1.05;;;1.02;;
12884;SDS011;6510;51.362;7.370;2022-07-26T13:09:54;1.45;;;1.05;;
12884;SDS011;6510;51.362;7.370;2022-07-26T13:12:19;1.05;;;0.90;;
12884;SDS011;6510;51.362;7.370;2022-07-26T13:14:45;0.80;;;0.80;;
12884;SDS011;6510;51.362;7.370;2022-07-26T13:17:11;1.10;;;1.10;;
12884;SDS011;6510;51.362;7.370;2022-07-26T13:19:37;0.85;;;0.85;;
12884;SDS011;6510;51.362;7.370;2022-07-26T13:22:04;0.90;;;0.90;;
12884;SDS011;6510;51.362;7.370;2022-07-26T13:24:31;1.95;;;0.90;;
12884;SDS011;6510;51.362;7.370;2022-07-26T13:26:57;0.80;;;0.80;;
12884;SDS011;6510;51.362;7.370;2022-07-26T13:29:23;0.90;;;0.90;;
12884;SDS011;6510;51.362;7.370;2022-07-26T13:31:49;1.58;;;1.42;;
12884;SDS011;6510;51.362;7.370;2022-07-26T13:34:15;1.83;;;0.80;;
12884;SDS011;6510;51.362;7.370;2022-07-26T13:36:42;0.77;;;0.77;;
12884;SDS011;6510;51.362;7.370;2022-07-26T13:39:08;0.75;;;0.75;;
12884;SDS011;6510;51.362;7.370;2022-07-26T13:41:34;0.90;;;0.90;;
12884;SDS011;6510;51.362;7.370;2022-07-26T13:43:59;0.90;;;0.90;;
12884;SDS011;6510;51.362;7.370;2022-07-26T13:46:25;1.05;;;1.00;;
12884;SDS011;6510;51.362;7.370;2022-07-26T13:48:54;0.90;;;0.90;;
12884;SDS011;6510;51.362;7.370;2022-07-26T13:51:21;1.17;;;1.17;;
12884;SDS011;6510;51.362;7.370;2022-07-26T13:53:46;1.35;;;1.25;;
12884;SDS011;6510;51.362;7.370;2022-07-26T13:56:12;1.95;;;1.30;;
12884;SDS011;6510;51.362;7.370;2022-07-26T13:58:38;1.38;;;1.17;;
12884;SDS011;6510;51.362;7.370;2022-07-26T14:01:03;2.08;;;1.20;;
12884;SDS011;6510;51.362;7.370;2022-07-26T14:03:30;1.20;;;1.20;;
12884;SDS011;6510;51.362;7.370;2022-07-26T14:05:55;1.05;;;1.05;;
12884;SDS011;6510;51.362;7.370;2022-07-26T14:08:21;1.70;;;1.30;;
12884;SDS011;6510;51.362;7.370;2022-07-26T14:10:47;1.75;;;1.20;;
12884;SDS011;6510;51.362;7.370;2022-07-26T14:13:13;1.00;;;1.00;;
12884;SDS011;6510;51.362;7.370;2022-07-26T14:15:39;1.00;;;0.90;;
12884;SDS011;6510;51.362;7.370;2022-07-26T14:18:04;1.00;;;1.00;;
12884;SDS011;6510;51.362;7.370;2022-07-26T14:20:30;1.05;;;1.05;;
12884;SDS011;6510;51.362;7.370;2022-07-26T14:22:56;2.10;;;1.17;;
12884;SDS011;6510;51.362;7.370;2022-07-26T14:25:22;1.10;;;1.00;;
12884;SDS011;6510;51.362;7.370;2022-07-26T14:27:49;0.93;;;0.93;;
12884;SDS011;6510;51.362;7.370;2022-07-26T14:30:16;1.23;;;1.15;;
12884;SDS011;6510;51.362;7.370;2022-07-26T14:32:42;1.38;;;1.27;;
12884;SDS011;6510;51.362;7.370;2022-07-26T14:35:08;1.20;;;1.10;;
12884;SDS011;6510;51.362;7.370;2022-07-26T14:37:34;1.05;;;0.95;;
12884;SDS011;6510;51.362;7.370;2022-07-26T14:40:00;1.83;;;1.20;;
12884;SDS011;6510;51.362;7.370;2022-07-26T14:42:26;2.42;;;1.20;;
12884;SDS011;6510;51.362;7.370;2022-07-26T14:44:52;1.85;;;1.20;;
12884;SDS011;6510;51.362;7.370;2022-07-26T14:47:17;1.88;;;1.40;;
12884;SDS011;6510;51.362;7.370;2022-07-26T14:49:43;1.02;;;1.02;;
12884;SDS011;6510;51.362;7.370;2022-07-26T14:52:09;1.48;;;1.08;;
12884;SDS011;6510;51.362;7.370;2022-07-26T14:54:35;1.20;;;1.10;;
12884;SDS011;6510;51.362;7.370;2022-07-26T14:57:00;1.23;;;1.02;;
12884;SDS011;6510;51.362;7.370;2022-07-26T14:59:26;1.33;;;0.95;;
12884;SDS011;6510;51.362;7.370;2022-07-26T15:01:52;1.70;;;0.98;;
12884;SDS011;6510;51.362;7.370;2022-07-26T15:04:20;2.47;;;1.20;;
12884;SDS011;6510;51.362;7.370;2022-07-26T15:06:46;1.10;;;0.90;;
12884;SDS011;6510;51.362;7.370;2022-07-26T15:09:12;1.52;;;1.10;;
12884;SDS011;6510;51.362;7.370;2022-07-26T15:11:38;1.40;;;1.10;;
12884;SDS011;6510;51.362;7.370;2022-07-26T15:14:04;1.48;;;0.90;;
12884;SDS011;6510;51.362;7.370;2022-07-26T15:16:29;1.00;;;1.00;;
12884;SDS011;6510;51.362;7.370;2022-07-26T15:18:56;2.05;;;1.30;;
12884;SDS011;6510;51.362;7.370;2022-07-26T15:21:22;1.02;;;0.93;;
12884;SDS011;6510;51.362;7.370;2022-07-26T15:23:48;1.35;;;1.17;;
12884;SDS011;6510;51.362;7.370;2022-07-26T15:26:26;1.20;;;1.10;;
12884;SDS011;6510;51.362;7.370;2022-07-26T15:28:56;1.15;;;1.13;;